Time;durP1;ratioP1;P1;durP2;ratioP2;P2;SDS_P1;SDS_P2;PMS_P1;PMS_P2;Temp;Humidity;BMP_temperature;BMP_pressure;BME280_temperature;BME280_humidity;BME280_pressure;Samples;Min_cycle;Max_cycle;Signal;HPM_P1;HPM_P2
2023/02/12 00:00:39;;;;;;;;;;;5.30;89.20;;;;;;5095234;28;19959;-82
2023/02/12 00:03:04;;;;;;;;;;;5.30;89.40;;;;;;5079241;28;19919;-82
2023/02/12 00:05:31;;;;;;;;;;;5.30;89.70;;;;;;5080882;28;20551;-83
2023/02/12 00:07:56;;;;;;;;;;;5.20;90.00;;;;;;5081403;28;19908;-82
2023/02/12 00:10:22;;;;;;;;;;;5.20;90.30;;;;;;5082118;28;19915;-83
2023/02/12 00:12:47;;;;;;;;;;;5.20;90.40;;;;;;5081921;28;19912;-83
2023/02/12 00:15:13;;;;;;;;;;;5.10;90.60;;;;;;5066615;28;20342;-83
2023/02/12 00:17:38;;;;;;;;;;;5.10;90.80;;;;;;5090090;28;19905;-83
2023/02/12 00:20:04;;;;;;;;;;;5.10;91.00;;;;;;5093099;28;19916;-83
2023/02/12 00:22:29;;;;;;;;;;;5.10;91.20;;;;;;5091517;28;19909;-84
2023/02/12 00:24:55;;;;;;;;;;;5.10;91.30;;;;;;5090603;28;19936;-84
2023/02/12 00:27:21;;;;;;;;;;;5.10;91.40;;;;;;5078109;28;19923;-84
2023/02/12 00:29:47;;;;;;;;;;;5.10;91.60;;;;;;5070928;28;19963;-83
2023/02/12 00:32:13;;;;;;;;;;;5.10;91.70;;;;;;5070682;28;19909;-83
2023/02/12 00:34:41;;;;;;;;;;;5.10;91.80;;;;;;5070814;28;19966;-83
2023/02/12 00:37:07;;;;;;;;;;;5.10;91.80;;;;;;5084844;28;19995;-83
2023/02/12 00:39:35;;;;;;;;;;;5.10;91.80;;;;;;5085840;28;19917;-83
2023/02/12 00:42:00;;;;;;;;;;;5.00;91.90;;;;;;5083477;28;20023;-83
2023/02/12 00:44:26;;;;;;;;;;;5.10;92.10;;;;;;5080677;28;19970;-83
2023/02/12 00:46:51;;;;;;;;;;;5.00;92.20;;;;;;5084553;28;19912;-83
2023/02/12 00:49:19;;;;;;;;;;;5.10;92.60;;;;;;5080370;28;19909;-84
2023/02/12 00:51:44;;;;;;;;;;;5.10;92.30;;;;;;5063171;28;19909;-83
2023/02/12 00:54:10;;;;;;;;;;;5.10;92.30;;;;;;5061826;28;20383;-83
2023/02/12 00:56:35;;;;;;;;;;;5.10;92.20;;;;;;5062456;28;19923;-83
2023/02/12 00:59:01;;;;;;;;;;;5.10;92.20;;;;;;5061351;28;19940;-83
2023/02/12 01:01:26;;;;;;;;;;;5.00;92.20;;;;;;5061916;28;19909;-84
2023/02/12 01:03:52;;;;;;;;;;;5.00;92.10;;;;;;5061729;28;19955;-83
2023/02/12 01:06:17;;;;;;;;;;;5.00;92.00;;;;;;5088813;28;19908;-83
2023/02/12 01:08:43;;;;;;;;;;;5.00;91.90;;;;;;5084255;28;19919;-83
2023/02/12 01:11:11;;;;;;;;;;;5.00;92.00;;;;;;5084994;28;19919;-83
2023/02/12 01:13:36;;;;;;;;;;;5.00;92.10;;;;;;5084652;28;19913;-83
2023/02/12 01:16:13;;;;;;;;;;;5.00;92.10;;;;;;5084123;28;20244;-82
2023/02/12 01:18:38;;;;;;;;;;;5.00;92.10;;;;;;5083085;28;19908;-82
2023/02/12 01:21:08;;;;;;;;;;;5.00;92.00;;;;;;5086443;28;19910;-82
2023/02/12 01:23:34;;;;;;;;;;;5.00;92.00;;;;;;5091091;28;19908;-82
2023/02/12 01:25:59;;;;;;;;;;;5.10;91.90;;;;;;5089657;28;19909;-82
2023/02/12 01:28:25;;;;;;;;;;;5.00;91.70;;;;;;5079807;28;20375;-84
2023/02/12 01:30:50;;;;;;;;;;;5.00;91.80;;;;;;5065099;28;19951;-83
2023/02/12 01:33:16;;;;;;;;;;;5.00;91.80;;;;;;5064361;28;20357;-83
2023/02/12 01:35:41;;;;;;;;;;;5.00;91.80;;;;;;5061268;28;19909;-83
2023/02/12 01:38:07;;;;;;;;;;;5.00;91.90;;;;;;5061820;28;19916;-83
2023/02/12 01:40:32;;;;;;;;;;;4.90;91.90;;;;;;5062534;28;20435;-83
2023/02/12 01:43:02;;;;;;;;;;;4.90;92.00;;;;;;5062218;28;19940;-84
2023/02/12 01:45:27;;;;;;;;;;;4.90;92.10;;;;;;5065105;28;19912;-83
2023/02/12 01:47:53;;;;;;;;;;;4.90;92.10;;;;;;5079231;28;20287;-83
2023/02/12 01:50:19;;;;;;;;;;;4.80;92.10;;;;;;5078646;28;19909;-82
2023/02/12 01:52:53;;;;;;;;;;;4.80;92.20;;;;;;5061722;28;19996;-83
2023/02/12 01:55:19;;;;;;;;;;;4.80;92.10;;;;;;5062119;28;19964;-81
2023/02/12 01:57:46;;;;;;;;;;;4.80;92.20;;;;;;5066535;28;19947;-81
2023/02/12 02:00:13;;;;;;;;;;;4.80;92.20;;;;;;5095060;28;19914;-81
2023/02/12 02:02:38;;;;;;;;;;;4.80;92.30;;;;;;5079277;28;19909;-82
2023/02/12 02:05:04;;;;;;;;;;;4.80;92.30;;;;;;5080284;28;19909;-82
2023/02/12 02:07:30;;;;;;;;;;;4.80;92.40;;;;;;5078544;28;20406;-83
2023/02/12 02:09:56;;;;;;;;;;;4.80;92.10;;;;;;5062115;28;19916;-83
2023/02/12 02:15:07;;;;;;;;;;;4.90;92.20;;;;;;5075995;28;19920;-82
2023/02/12 02:17:48;;;;;;;;;;;4.90;92.20;;;;;;5077220;28;19936;-82
2023/02/12 02:20:23;;;;;;;;;;;4.90;92.20;;;;;;5079368;28;19913;-83
2023/02/12 02:23:08;;;;;;;;;;;5.00;92.20;;;;;;5073974;28;19913;-82
2023/02/12 02:25:53;;;;;;;;;;;5.00;92.00;;;;;;5062678;28;19920;-83
2023/02/12 02:28:21;;;;;;;;;;;5.00;92.00;;;;;;5069843;28;19948;-83
2023/02/12 02:30:56;;;;;;;;;;;5.00;92.10;;;;;;5080902;28;19915;-83
2023/02/12 02:33:30;;;;;;;;;;;5.00;92.20;;;;;;5081506;28;19956;-83
2023/02/12 02:35:56;;;;;;;;;;;5.00;92.70;;;;;;5082881;28;19935;-84
2023/02/12 02:38:24;;;;;;;;;;;5.00;93.10;;;;;;5082716;28;20280;-84
2023/02/12 02:41:06;;;;;;;;;;;5.00;93.30;;;;;;5062621;28;19972;-83
2023/02/12 02:43:39;;;;;;;;;;;5.00;93.50;;;;;;5062873;28;19917;-84
2023/02/12 02:46:10;;;;;;;;;;;5.00;93.70;;;;;;5066973;28;19909;-84
2023/02/12 02:48:37;;;;;;;;;;;5.00;94.00;;;;;;5068147;28;19908;-83
2023/02/12 02:51:12;;;;;;;;;;;5.00;94.20;;;;;;5093436;28;19991;-84
2023/02/12 02:53:46;;;;;;;;;;;5.00;94.40;;;;;;5092371;28;20452;-83
2023/02/12 02:56:14;;;;;;;;;;;5.00;94.70;;;;;;5077792;28;19908;-82
2023/02/12 02:58:42;;;;;;;;;;;5.00;94.70;;;;;;5078362;28;19908;-82
2023/02/12 03:01:30;;;;;;;;;;;4.90;94.60;;;;;;5078896;28;19908;-83
2023/02/12 03:04:05;;;;;;;;;;;4.90;94.30;;;;;;5071007;28;19920;-83
2023/02/12 03:06:41;;;;;;;;;;;4.90;94.10;;;;;;5082240;28;19922;-82
2023/02/12 03:09:21;;;;;;;;;;;4.80;93.70;;;;;;5083299;28;19938;-82
2023/02/12 03:11:49;;;;;;;;;;;4.80;93.40;;;;;;5084321;28;20183;-82
2023/02/12 03:14:25;;;;;;;;;;;4.80;93.30;;;;;;5082202;28;19913;-83
2023/02/12 03:16:58;;;;;;;;;;;4.90;93.20;;;;;;5082704;28;19912;-83
2023/02/12 03:19:25;;;;;;;;;;;4.90;93.10;;;;;;5073175;28;19909;-82
2023/02/12 03:22:00;;;;;;;;;;;4.90;93.10;;;;;;5081202;28;19916;-82
2023/02/12 03:24:44;;;;;;;;;;;4.80;93.00;;;;;;5082139;28;19916;-83
2023/02/12 03:27:15;;;;;;;;;;;4.80;93.10;;;;;;5082636;28;19909;-83
2023/02/12 03:29:40;;;;;;;;;;;4.90;93.10;;;;;;5080443;28;19931;-83
2023/02/12 03:32:24;;;;;;;;;;;4.90;93.10;;;;;;5079783;28;19919;-83
2023/02/12 03:34:53;;;;;;;;;;;5.00;93.10;;;;;;5095006;28;20404;-82
2023/02/12 03:37:37;;;;;;;;;;;5.00;93.00;;;;;;5079986;28;19908;-83
2023/02/12 03:40:18;;;;;;;;;;;5.00;92.80;;;;;;5081876;28;19927;-82
2023/02/12 03:42:46;;;;;;;;;;;5.00;92.70;;;;;;5063014;28;19916;-83
2023/02/12 03:45:15;;;;;;;;;;;5.00;92.70;;;;;;5060611;28;19909;-83
2023/02/12 03:47:46;;;;;;;;;;;5.00;92.70;;;;;;5067264;28;19952;-82
2023/02/12 03:50:24;;;;;;;;;;;5.00;92.70;;;;;;5082338;28;19948;-83
2023/02/12 03:52:50;;;;;;;;;;;5.00;92.80;;;;;;5077733;28;19926;-83
2023/02/12 03:55:16;;;;;;;;;;;5.00;92.80;;;;;;5080424;28;19934;-83
2023/02/12 03:57:44;;;;;;;;;;;5.00;92.90;;;;;;5080630;28;19908;-83
2023/02/12 04:00:14;;;;;;;;;;;5.00;93.00;;;;;;5081594;28;19909;-83
2023/02/12 04:02:40;;;;;;;;;;;5.00;93.10;;;;;;5067553;28;19917;-83
2023/02/12 04:05:07;;;;;;;;;;;5.00;93.10;;;;;;5075313;28;19948;-84
2023/02/12 04:07:33;;;;;;;;;;;5.00;93.10;;;;;;5075879;28;20421;-83
2023/02/12 04:09:59;;;;;;;;;;;5.00;93.30;;;;;;5061366;28;19917;-83
2023/02/12 04:12:40;;;;;;;;;;;5.00;93.30;;;;;;5068623;28;19927;-83
2023/02/12 04:15:26;;;;;;;;;;;5.00;93.50;;;;;;5081006;28;19970;-83
2023/02/12 04:17:57;;;;;;;;;;;5.00;93.80;;;;;;5060408;28;19951;-82
2023/02/12 04:20:29;;;;;;;;;;;5.00;94.00;;;;;;5079346;28;19908;-82
2023/02/12 04:23:13;;;;;;;;;;;4.90;94.10;;;;;;5058105;28;19919;-83
2023/02/12 04:25:53;;;;;;;;;;;4.90;94.30;;;;;;5056173;28;19916;-82
2023/02/12 04:28:37;;;;;;;;;;;4.90;94.70;;;;;;5053575;28;20252;-83
2023/02/12 04:31:26;;;;;;;;;;;4.90;94.90;;;;;;5054415;28;19952;-83
2023/02/12 04:33:59;;;;;;;;;;;4.90;95.20;;;;;;5077262;28;19901;-84
2023/02/12 04:36:29;;;;;;;;;;;5.00;95.40;;;;;;5095807;28;19905;-83
2023/02/12 04:38:57;;;;;;;;;;;5.00;95.60;;;;;;5091402;28;20015;-82
2023/02/12 04:41:23;;;;;;;;;;;5.00;95.80;;;;;;5092049;28;19950;-84
2023/02/12 04:43:49;;;;;;;;;;;5.00;95.80;;;;;;5076342;28;19924;-84
2023/02/12 04:46:14;;;;;;;;;;;5.00;95.80;;;;;;5072607;28;19913;-83
2023/02/12 04:48:50;;;;;;;;;;;4.90;95.80;;;;;;5064295;28;20055;-85
2023/02/12 04:51:15;;;;;;;;;;;4.90;95.90;;;;;;5056896;28;19909;-83
2023/02/12 04:53:41;;;;;;;;;;;5.00;96.00;;;;;;5063313;28;19985;-83
2023/02/12 04:56:09;;;;;;;;;;;5.00;96.00;;;;;;5076101;28;19969;-83
2023/02/12 04:58:36;;;;;;;;;;;5.00;96.10;;;;;;5068824;28;19917;-82
2023/02/12 05:01:02;;;;;;;;;;;5.00;96.20;;;;;;5076744;28;19951;-83
2023/02/12 05:03:27;;;;;;;;;;;4.90;96.30;;;;;;5077051;28;19908;-84
2023/02/12 05:05:53;;;;;;;;;;;5.00;96.50;;;;;;5082657;28;19936;-82
2023/02/12 05:08:18;;;;;;;;;;;5.00;96.50;;;;;;5082939;28;19909;-82
2023/02/12 05:10:44;;;;;;;;;;;5.00;96.50;;;;;;5069725;28;19927;-82
2023/02/12 05:13:09;;;;;;;;;;;5.00;96.40;;;;;;5058346;28;19913;-83
2023/02/12 05:15:37;;;;;;;;;;;5.00;96.30;;;;;;5073433;28;19912;-83
2023/02/12 05:18:02;;;;;;;;;;;5.00;96.20;;;;;;5068770;28;20003;-83
2023/02/12 05:20:28;;;;;;;;;;;4.90;96.20;;;;;;5062167;28;19947;-83
2023/02/12 05:22:53;;;;;;;;;;;4.80;96.20;;;;;;5057728;28;20284;-83
2023/02/12 05:25:19;;;;;;;;;;;4.80;95.80;;;;;;5070281;28;19912;-83
2023/02/12 05:27:44;;;;;;;;;;;4.80;95.40;;;;;;5091211;28;19923;-84
2023/02/12 05:30:10;;;;;;;;;;;4.80;95.20;;;;;;5079609;28;19928;-86
2023/02/12 05:32:36;;;;;;;;;;;4.70;95.00;;;;;;5087013;28;19916;-86
2023/02/12 05:35:02;;;;;;;;;;;4.70;94.80;;;;;;5095949;28;19979;-85
2023/02/12 05:37:27;;;;;;;;;;;4.70;94.60;;;;;;5098501;28;19913;-85
2023/02/12 05:39:53;;;;;;;;;;;4.70;94.40;;;;;;5099150;28;19908;-86
2023/02/12 05:42:18;;;;;;;;;;;4.60;94.30;;;;;;5081998;28;19912;-85
2023/02/12 05:44:44;;;;;;;;;;;4.70;94.30;;;;;;5074759;28;19961;-85
2023/02/12 05:47:09;;;;;;;;;;;4.70;94.30;;;;;;5076308;28;19908;-85
2023/02/12 05:49:35;;;;;;;;;;;4.70;94.20;;;;;;5062682;28;19909;-85
2023/02/12 05:52:00;;;;;;;;;;;4.80;94.20;;;;;;5077842;28;19897;-85
2023/02/12 05:54:26;;;;;;;;;;;4.90;94.20;;;;;;5076141;28;19916;-85
2023/02/12 05:56:51;;;;;;;;;;;4.80;94.30;;;;;;5092687;28;19919;-84
2023/02/12 05:59:18;;;;;;;;;;;4.70;95.00;;;;;;5094901;28;19896;-85
2023/02/12 06:01:45;;;;;;;;;;;4.70;96.00;;;;;;5082028;28;19909;-85
2023/02/12 06:04:13;;;;;;;;;;;4.70;97.10;;;;;;5082042;28;20117;-84
2023/02/12 06:06:41;;;;;;;;;;;4.60;97.80;;;;;;5084955;28;20552;-85
2023/02/12 06:09:06;;;;;;;;;;;4.50;98.80;;;;;;5057261;28;20355;-84
2023/02/12 06:11:32;;;;;;;;;;;4.50;99.90;;;;;;5074504;28;19959;-84
2023/02/12 06:14:00;;;;;;;;;;;4.40;99.90;;;;;;5073672;28;19935;-85
2023/02/12 06:16:26;;;;;;;;;;;4.40;99.90;;;;;;5064500;28;20397;-85
2023/02/12 06:18:52;;;;;;;;;;;4.30;99.90;;;;;;5089259;28;19939;-86
2023/02/12 06:21:19;;;;;;;;;;;4.20;99.90;;;;;;5080909;28;20358;-85
2023/02/12 06:23:45;;;;;;;;;;;4.20;99.90;;;;;;5081954;28;19916;-85
2023/02/12 06:26:10;;;;;;;;;;;4.10;99.90;;;;;;5077515;28;19913;-85
2023/02/12 06:28:36;;;;;;;;;;;4.10;99.90;;;;;;5078462;28;19912;-84
2023/02/12 06:31:02;;;;;;;;;;;4.00;99.90;;;;;;5076863;28;20286;-84
2023/02/12 06:33:27;;;;;;;;;;;4.00;99.90;;;;;;5093748;28;19919;-85
2023/02/12 06:35:53;;;;;;;;;;;4.00;99.90;;;;;;5094264;28;19915;-85
2023/02/12 06:38:18;;;;;;;;;;;4.00;99.90;;;;;;5079545;28;20002;-86
2023/02/12 06:40:44;;;;;;;;;;;4.00;99.90;;;;;;5095273;28;19936;-85
2023/02/12 06:43:10;;;;;;;;;;;4.00;99.90;;;;;;5098057;28;19958;-84
2023/02/12 06:45:35;;;;;;;;;;;4.00;99.90;;;;;;5096758;28;19904;-85
2023/02/12 06:48:01;;;;;;;;;;;4.00;99.90;;;;;;5082223;28;20341;-83
2023/02/12 06:50:27;;;;;;;;;;;4.00;99.90;;;;;;5074778;28;19913;-84
2023/02/12 06:52:52;;;;;;;;;;;4.00;99.90;;;;;;5076436;28;19920;-82
2023/02/12 06:55:18;;;;;;;;;;;4.00;99.90;;;;;;5062754;28;19928;-82
2023/02/12 06:57:44;;;;;;;;;;;4.10;99.90;;;;;;5070465;28;19931;-83
2023/02/12 07:00:10;;;;;;;;;;;4.10;99.90;;;;;;5089156;28;19908;-82
2023/02/12 07:02:35;;;;;;;;;;;4.10;99.90;;;;;;5091956;28;19909;-82
2023/02/12 07:05:01;;;;;;;;;;;4.20;99.90;;;;;;5089249;28;20287;-82
2023/02/12 07:07:28;;;;;;;;;;;4.20;99.90;;;;;;5088330;28;19997;-83
2023/02/12 07:09:54;;;;;;;;;;;4.30;99.90;;;;;;5089805;28;19904;-83
2023/02/12 07:12:19;;;;;;;;;;;4.40;99.90;;;;;;5089416;28;19931;-84
2023/02/12 07:14:45;;;;;;;;;;;4.40;99.90;;;;;;5083997;28;19916;-84
2023/02/12 07:17:12;;;;;;;;;;;4.50;99.90;;;;;;5099677;28;19974;-83
2023/02/12 07:19:38;;;;;;;;;;;4.60;99.90;;;;;;5086747;28;19959;-83
2023/02/12 07:22:03;;;;;;;;;;;4.70;99.90;;;;;;5084027;28;20317;-83
2023/02/12 07:24:29;;;;;;;;;;;4.70;99.90;;;;;;5083456;28;19913;-84
2023/02/12 07:26:55;;;;;;;;;;;4.80;99.90;;;;;;5082091;28;19908;-83
2023/02/12 07:29:23;;;;;;;;;;;4.80;99.90;;;;;;5082403;28;20571;-82
2023/02/12 07:31:49;;;;;;;;;;;4.70;99.90;;;;;;5089526;28;19944;-82
2023/02/12 07:34:15;;;;;;;;;;;4.70;99.90;;;;;;5085135;28;19925;-79
2023/02/12 07:36:41;;;;;;;;;;;4.70;99.90;;;;;;5088054;28;20480;-80
2023/02/12 07:39:12;;;;;;;;;;;4.80;99.90;;;;;;5090022;28;19955;-84
2023/02/12 07:41:37;;;;;;;;;;;4.80;99.90;;;;;;5091049;28;19969;-83
2023/02/12 07:44:08;;;;;;;;;;;4.80;99.90;;;;;;5086588;28;19912;-83
2023/02/12 07:46:44;;;;;;;;;;;4.80;99.90;;;;;;5082994;28;19908;-84
2023/02/12 07:49:14;;;;;;;;;;;4.80;99.90;;;;;;5080281;28;19916;-83
2023/02/12 07:51:40;;;;;;;;;;;4.80;99.90;;;;;;5096854;28;20497;-85
2023/02/12 07:54:06;;;;;;;;;;;4.90;99.90;;;;;;5083491;28;19912;-81
2023/02/12 07:56:34;;;;;;;;;;;4.90;99.90;;;;;;5084029;28;19991;-81
2023/02/12 07:59:00;;;;;;;;;;;5.00;99.90;;;;;;5088545;28;19988;-82
2023/02/12 08:01:30;;;;;;;;;;;5.00;99.90;;;;;;5087967;28;19916;-83
2023/02/12 08:03:57;;;;;;;;;;;5.10;99.90;;;;;;5084193;28;19908;-82
2023/02/12 08:06:24;;;;;;;;;;;5.20;99.90;;;;;;5083472;28;19909;-80
2023/02/12 08:08:53;;;;;;;;;;;5.30;99.90;;;;;;5084261;28;19909;-81
2023/02/12 08:11:19;;;;;;;;;;;5.40;99.90;;;;;;5085797;28;19913;-83
2023/02/12 08:13:45;;;;;;;;;;;5.50;99.90;;;;;;5087398;28;19920;-82
2023/02/12 08:16:12;;;;;;;;;;;5.60;99.90;;;;;;5082815;28;19920;-83
2023/02/12 08:18:37;;;;;;;;;;;5.70;99.90;;;;;;5091427;28;19908;-86
2023/02/12 08:21:04;;;;;;;;;;;5.70;99.90;;;;;;5091911;28;19909;-84
2023/02/12 08:23:32;;;;;;;;;;;5.60;99.90;;;;;;5085984;28;19914;-82
2023/02/12 08:26:07;;;;;;;;;;;5.60;99.90;;;;;;5072675;28;19940;-83
2023/02/12 08:28:33;;;;;;;;;;;5.70;99.90;;;;;;5067065;28;19909;-84
2023/02/12 08:31:00;;;;;;;;;;;5.80;99.90;;;;;;5074872;28;19909;-83
2023/02/12 08:33:26;;;;;;;;;;;5.80;99.90;;;;;;5061238;28;19920;-84
2023/02/12 08:35:59;;;;;;;;;;;5.90;99.90;;;;;;5084385;28;19901;-85
2023/02/12 08:38:24;;;;;;;;;;;6.00;99.90;;;;;;5096843;28;20066;-85
2023/02/12 08:40:50;;;;;;;;;;;6.10;99.90;;;;;;5085116;28;19917;-85
2023/02/12 08:43:15;;;;;;;;;;;6.20;99.90;;;;;;5067900;28;19924;-84
2023/02/12 08:45:42;;;;;;;;;;;6.30;99.90;;;;;;5063115;28;20312;-84
2023/02/12 08:48:08;;;;;;;;;;;6.30;99.90;;;;;;5077529;28;19908;-85
2023/02/12 08:50:33;;;;;;;;;;;6.40;99.90;;;;;;5073241;28;19912;-84
2023/02/12 08:52:59;;;;;;;;;;;6.40;99.90;;;;;;5078993;28;19934;-85
2023/02/12 08:55:24;;;;;;;;;;;6.40;99.90;;;;;;5075564;28;19928;-84
2023/02/12 08:57:52;;;;;;;;;;;6.50;99.90;;;;;;5078637;28;20272;-85
2023/02/12 09:00:18;;;;;;;;;;;6.50;99.90;;;;;;5057537;28;19908;-84
2023/02/12 09:02:43;;;;;;;;;;;6.50;99.90;;;;;;5075944;28;19915;-85
2023/02/12 09:05:09;;;;;;;;;;;6.60;99.90;;;;;;5076626;28;19916;-85
2023/02/12 09:07:35;;;;;;;;;;;6.70;99.80;;;;;;5076873;28;19931;-85
2023/02/12 09:10:00;;;;;;;;;;;6.80;99.40;;;;;;5075870;28;20322;-85
2023/02/12 09:12:26;;;;;;;;;;;6.80;99.20;;;;;;5076859;28;19916;-86
2023/02/12 09:14:51;;;;;;;;;;;6.90;98.70;;;;;;5103865;28;19913;-85
2023/02/12 09:17:17;;;;;;;;;;;6.90;98.60;;;;;;5096813;28;20128;-85
2023/02/12 09:19:43;;;;;;;;;;;6.90;98.70;;;;;;5078369;28;19935;-86
2023/02/12 09:22:08;;;;;;;;;;;7.00;98.40;;;;;;5092725;28;19916;-85
2023/02/12 09:24:37;;;;;;;;;;;6.80;98.20;;;;;;5075964;28;19974;-85
2023/02/12 09:27:02;;;;;;;;;;;6.70;98.40;;;;;;5079349;28;19909;-85
2023/02/12 09:29:28;;;;;;;;;;;6.80;98.80;;;;;;5070711;28;19962;-86
2023/02/12 09:31:53;;;;;;;;;;;6.80;98.80;;;;;;5062983;28;20361;-85
2023/02/12 09:34:19;;;;;;;;;;;6.80;99.00;;;;;;5096818;28;20363;-85
2023/02/12 09:36:44;;;;;;;;;;;7.00;98.80;;;;;;5078881;28;19984;-85
2023/02/12 09:39:10;;;;;;;;;;;7.00;98.60;;;;;;5070413;28;19916;-85
2023/02/12 09:41:49;;;;;;;;;;;7.00;98.50;;;;;;5096757;28;19919;-86
2023/02/12 09:44:21;;;;;;;;;;;7.10;98.70;;;;;;5096114;28;19920;-84
2023/02/12 09:46:49;;;;;;;;;;;7.30;97.90;;;;;;5076192;28;19920;-85
2023/02/12 09:49:18;;;;;;;;;;;7.40;97.50;;;;;;5085953;28;19934;-85
2023/02/12 09:51:47;;;;;;;;;;;7.50;97.00;;;;;;5087676;28;19994;-85
2023/02/12 09:54:15;;;;;;;;;;;7.50;97.30;;;;;;5066443;28;19921;-84
2023/02/12 09:56:42;;;;;;;;;;;7.60;97.10;;;;;;5077964;28;19916;-85
2023/02/12 09:59:07;;;;;;;;;;;7.80;96.90;;;;;;5080747;28;19939;-85
2023/02/12 10:01:33;;;;;;;;;;;7.90;96.60;;;;;;5081078;28;19908;-84
2023/02/12 10:03:59;;;;;;;;;;;7.90;95.60;;;;;;5072773;28;19913;-85
2023/02/12 10:06:26;;;;;;;;;;;7.80;95.60;;;;;;5060840;28;19951;-85
2023/02/12 10:09:07;;;;;;;;;;;7.90;95.70;;;;;;5062128;28;19947;-85
2023/02/12 10:11:52;;;;;;;;;;;8.10;95.70;;;;;;5062770;28;20047;-84
2023/02/12 10:14:24;;;;;;;;;;;8.40;95.30;;;;;;5059048;28;19976;-85
2023/02/12 10:16:50;;;;;;;;;;;8.70;94.50;;;;;;5088023;28;19892;-84
2023/02/12 10:19:29;;;;;;;;;;;8.70;93.20;;;;;;5098699;28;19972;-84
2023/02/12 10:22:12;;;;;;;;;;;8.80;93.10;;;;;;5107846;28;19939;-84
2023/02/12 10:24:48;;;;;;;;;;;8.90;92.70;;;;;;5089236;28;19912;-85
2023/02/12 10:27:15;;;;;;;;;;;8.90;91.50;;;;;;5092633;28;19919;-85
2023/02/12 10:29:42;;;;;;;;;;;9.00;91.60;;;;;;5092581;28;19913;-85
2023/02/12 10:32:28;;;;;;;;;;;9.00;91.40;;;;;;5082306;28;19908;-85
2023/02/12 10:35:38;;;;;;;;;;;9.10;91.70;;;;;;5076113;28;19912;-85
2023/02/12 10:38:48;;;;;;;;;;;9.30;91.10;;;;;;5091637;28;19935;-84
2023/02/12 10:41:55;;;;;;;;;;;9.30;90.70;;;;;;5066509;28;19952;-84
2023/02/12 10:44:20;;;;;;;;;;;9.40;90.10;;;;;;5100283;28;19959;-85
2023/02/12 10:46:46;;;;;;;;;;;9.40;90.10;;;;;;5085647;28;19909;-85
2023/02/12 10:49:14;;;;;;;;;;;9.30;90.20;;;;;;5085011;28;20393;-85
2023/02/12 10:51:48;;;;;;;;;;;9.30;90.20;;;;;;5091461;28;19909;-84
2023/02/12 10:54:32;;;;;;;;;;;9.30;90.20;;;;;;5083018;28;19908;-85
2023/02/12 10:56:58;;;;;;;;;;;9.30;89.00;;;;;;5079979;28;19915;-85
2023/02/12 10:59:24;;;;;;;;;;;9.20;90.40;;;;;;5078548;28;19912;-85
2023/02/12 11:01:50;;;;;;;;;;;9.20;90.90;;;;;;5069130;28;19959;-85
2023/02/12 11:04:32;;;;;;;;;;;9.30;90.80;;;;;;5059239;28;19909;-84
2023/02/12 11:06:57;;;;;;;;;;;9.40;90.60;;;;;;5058935;28;19908;-85
2023/02/12 11:09:30;;;;;;;;;;;9.50;90.30;;;;;;5059295;28;19959;-86
2023/02/12 11:11:56;;;;;;;;;;;9.50;88.50;;;;;;5058907;28;19909;-85
2023/02/12 11:14:22;;;;;;;;;;;9.20;89.60;;;;;;5058877;28;19913;-84
2023/02/12 11:16:53;;;;;;;;;;;9.00;90.90;;;;;;5088243;28;20046;-84
2023/02/12 11:19:23;;;;;;;;;;;9.10;91.50;;;;;;5086770;28;19909;-84
2023/02/12 11:21:49;;;;;;;;;;;9.20;90.20;;;;;;5078821;28;19955;-83
2023/02/12 11:24:20;;;;;;;;;;;9.10;90.20;;;;;;5066322;28;19909;-84
2023/02/12 11:26:45;;;;;;;;;;;8.90;90.20;;;;;;5062549;28;20335;-84
2023/02/12 11:29:18;;;;;;;;;;;8.60;90.30;;;;;;5072304;28;19916;-85
2023/02/12 11:31:58;;;;;;;;;;;8.30;91.10;;;;;;5089682;28;19928;-84
2023/02/12 11:34:23;;;;;;;;;;;8.40;92.10;;;;;;5065364;28;19977;-86
2023/02/12 11:36:50;;;;;;;;;;;8.80;91.90;;;;;;5081782;22;19925;-79
2023/02/12 11:39:21;;;;;;;;;;;9.20;90.50;;;;;;5061563;28;19908;-79
2023/02/12 11:42:05;;;;;;;;;;;9.40;90.20;;;;;;5044032;28;19981;-79
2023/02/12 11:44:33;;;;;;;;;;;9.70;88.40;;;;;;5040216;28;19909;-80
2023/02/12 11:47:07;;;;;;;;;;;10.00;88.10;;;;;;5049947;28;20481;-80
2023/02/12 11:49:37;;;;;;;;;;;10.40;87.60;;;;;;5064473;28;20344;-79
2023/02/12 11:52:03;;;;;;;;;;;10.90;85.70;;;;;;5059733;28;19923;-79
2023/02/12 11:54:33;;;;;;;;;;;11.10;82.60;;;;;;5057195;28;19917;-79
2023/02/12 11:56:59;;;;;;;;;;;11.00;80.70;;;;;;5040361;28;20383;-79
2023/02/12 11:59:30;;;;;;;;;;;10.70;80.90;;;;;;5059051;28;19913;-78
2023/02/12 12:01:58;;;;;;;;;;;10.40;82.60;;;;;;5049616;28;20454;-79
2023/02/12 12:04:24;;;;;;;;;;;;;;;;;;5022560;28;19916;-79
2023/02/12 12:06:53;;;;;;;;;;;10.00;83.60;;;;;;5040348;28;19910;-78
2023/02/12 12:09:38;;;;;;;;;;;10.00;85.60;;;;;;5022593;28;19909;-80
2023/02/12 12:12:07;;;;;;;;;;;10.10;85.20;;;;;;5050555;28;19916;-79
2023/02/12 12:19:51;;;;;;;;;;;10.30;84.70;;;;;;5061057;28;19963;-80
2023/02/12 12:20:21;;;;;;;;;;;10.40;83.60;;;;;;5059416;28;19927;-80
2023/02/12 12:23:07;;;;;;;;;;;10.30;83.50;;;;;;5058486;28;20016;-79
2023/02/12 12:25:42;;;;;;;;;;;10.20;83.50;;;;;;5057737;28;19913;-80
2023/02/12 12:28:14;;;;;;;;;;;10.20;84.30;;;;;;5040570;28;19908;-80
2023/02/12 12:30:44;;;;;;;;;;;10.20;84.40;;;;;;5055864;28;19909;-79
2023/02/12 12:33:21;;;;;;;;;;;10.20;82.30;;;;;;5058165;28;19916;-80
2023/02/12 12:35:50;;;;;;;;;;;10.10;82.50;;;;;;5039505;28;20054;-78
2023/02/12 12:38:15;;;;;;;;;;;10.20;83.60;;;;;;5057329;28;19947;-79
2023/02/12 12:40:59;;;;;;;;;;;10.30;82.70;;;;;;5059450;28;19908;-79
2023/02/12 12:43:30;;;;;;;;;;;10.40;81.30;;;;;;5047112;28;19968;-79
2023/02/12 12:46:11;;;;;;;;;;;10.30;81.00;;;;;;5039001;28;19929;-80
2023/02/12 12:48:45;;;;;;;;;;;10.10;81.30;;;;;;5058770;28;19909;-80
2023/02/12 12:51:34;;;;;;;;;;;9.90;83.60;;;;;;5074504;28;19909;-80
2023/02/12 12:54:19;;;;;;;;;;;10.00;84.30;;;;;;5061203;28;19980;-79
2023/02/12 12:57:00;;;;;;;;;;;10.30;83.50;;;;;;5060651;28;19909;-79
2023/02/12 12:59:28;;;;;;;;;;;10.50;82.80;;;;;;5058484;28;20323;-79
2023/02/12 13:01:54;;;;;;;;;;;10.70;81.80;;;;;;5063091;28;19909;-79
2023/02/12 13:04:38;;;;;;;;;;;10.70;81.50;;;;;;5062806;28;19920;-79
2023/02/12 13:07:10;;;;;;;;;;;10.40;81.20;;;;;;5048139;28;19913;-78
2023/02/12 13:09:44;;;;;;;;;;;10.00;83.30;;;;;;5041074;28;20434;-79
2023/02/12 13:12:37;;;;;;;;;;;9.60;85.50;;;;;;5042322;28;20280;-81
2023/02/12 13:15:24;;;;;;;;;;;9.40;86.60;;;;;;5054627;28;19921;-78
2023/02/12 13:18:02;;;;;;;;;;;9.30;87.90;;;;;;5049564;28;20299;-79
2023/02/12 13:20:41;;;;;;;;;;;9.20;88.00;;;;;;5073185;28;19916;-79
2023/02/12 13:23:14;;;;;;;;;;;9.20;88.20;;;;;;5076809;28;19909;-79
2023/02/12 13:26:00;;;;;;;;;;;9.20;87.80;;;;;;5045059;28;20217;-79
2023/02/12 13:28:40;;;;;;;;;;;9.10;87.90;;;;;;5023674;28;20044;-79
2023/02/12 13:31:08;;;;;;;;;;;9.20;88.70;;;;;;5026227;28;19971;-79
2023/02/12 13:33:49;;;;;;;;;;;9.30;88.30;;;;;;5032720;28;19923;-78
2023/02/12 13:36:14;;;;;;;;;;;9.40;87.30;;;;;;5055652;28;20016;-78
2023/02/12 13:38:46;;;;;;;;;;;9.40;88.30;;;;;;5053693;28;20375;-78
2023/02/12 13:41:12;;;;;;;;;;;9.50;88.10;;;;;;5053167;28;19915;-79
2023/02/12 13:43:59;;;;;;;;;;;9.50;88.50;;;;;;5052297;28;19983;-79
2023/02/12 13:46:27;;;;;;;;;;;9.50;88.70;;;;;;5055722;28;19913;-78
2023/02/12 13:49:04;;;;;;;;;;;9.40;88.60;;;;;;5074905;28;19909;-78
2023/02/12 13:51:42;;;;;;;;;;;9.30;89.20;;;;;;5072340;28;19947;-78
2023/02/12 13:54:20;;;;;;;;;;;9.20;90.30;;;;;;5091284;28;19924;-78
2023/02/12 13:56:48;;;;;;;;;;;9.30;88.80;;;;;;5073559;28;19927;-79
2023/02/12 13:59:31;;;;;;;;;;;9.50;89.10;;;;;;5075765;28;19909;-78
2023/02/12 14:01:57;;;;;;;;;;;9.70;87.20;;;;;;5075093;28;19935;-79
2023/02/12 14:04:26;;;;;;;;;;;9.60;87.40;;;;;;5073683;28;20016;-79
2023/02/12 14:07:06;;;;;;;;;;;9.40;89.10;;;;;;5059936;28;19928;-78
2023/02/12 14:09:36;;;;;;;;;;;9.50;88.70;;;;;;5039311;28;19913;-80
2023/02/12 14:12:04;;;;;;;;;;;9.50;88.70;;;;;;5055052;28;19937;-79
2023/02/12 14:14:34;;;;;;;;;;;9.60;86.10;;;;;;5055252;28;19908;-78
2023/02/12 14:17:20;;;;;;;;;;;9.60;86.70;;;;;;5073596;28;19904;-78
2023/02/12 14:19:49;;;;;;;;;;;9.60;86.50;;;;;;5032438;28;19920;-79
2023/02/12 14:22:23;;;;;;;;;;;9.40;87.40;;;;;;5078454;28;19916;-78
2023/02/12 14:24:50;;;;;;;;;;;9.30;88.20;;;;;;5077587;28;19981;-77
2023/02/12 14:27:21;;;;;;;;;;;9.20;89.10;;;;;;5077370;28;19936;-78
2023/02/12 14:30:06;;;;;;;;;;;9.10;89.50;;;;;;5077935;28;19909;-78
2023/02/12 14:32:44;;;;;;;;;;;9.00;90.00;;;;;;5067684;28;19900;-78
2023/02/12 14:35:28;;;;;;;;;;;8.90;89.10;;;;;;5076060;28;19929;-79
2023/02/12 14:38:17;;;;;;;;;;;8.90;89.70;;;;;;5075620;28;19927;-80
2023/02/12 14:40:45;;;;;;;;;;;8.70;90.30;;;;;;5037751;28;19913;-77
2023/02/12 14:43:23;;;;;;;;;;;8.70;91.10;;;;;;5062691;28;19916;-78
2023/02/12 14:45:49;;;;;;;;;;;8.60;91.20;;;;;;5055093;28;20019;-79
2023/02/12 14:48:33;;;;;;;;;;;8.60;91.20;;;;;;5058682;28;19948;-78
2023/02/12 14:51:00;;;;;;;;;;;8.50;91.30;;;;;;5058079;28;19917;-78